.
WxDataArchive / Data Records for 2006-03-08
2006-03-07 March 2006 2006-03-09

Data Records for Wednesday, 08 March 2006

Time	Temp	Chill	HIndex	Humid	Dewpt	 Wind 	HiWind	WindDir	Rain 	Barom 
-----	----	-----	------	-----	-----	------	------	-------	-----	----- 
00:00	35.3	35.3	35.3	67	25.5	0	3	135	0.00	30.133 
00:05	35.5	35.5	35.5	66	25.3	1	3	112	0.00	30.133 
00:10	35.6	35.6	35.6	66	25.4	0	1	112	0.00	30.133 
00:15	35.8	35.8	35.8	67	25.9	0	2	112	0.00	30.124 
00:20	35.8	35.8	35.8	67	25.9	0	1	112	0.00	30.124 
00:25	35.8	35.8	35.8	66	25.6	0	2	112	0.00	30.124 
00:30	35.9	35.9	35.9	66	25.7	1	2	112	0.00	30.118 
00:35	36.0	36.0	36.0	65	25.4	1	3	112	0.00	30.118 
00:40	36.0	36.0	36.0	66	25.8	1	4	112	0.00	30.118 
00:45	36.2	36.2	36.2	66	26.0	1	3	135	0.00	30.110 
00:50	36.2	36.2	36.2	66	26.0	1	2	112	0.00	30.110 
00:55	36.2	36.2	36.2	65	25.6	1	4	135	0.00	30.110 
01:00	36.2	36.2	36.2	65	25.6	1	3	112	0.00	30.102 
01:05	36.3	36.3	36.3	65	25.7	1	3	112	0.00	30.102 
01:10	36.5	36.5	36.5	65	25.9	1	4	112	0.00	30.102 
01:15	36.5	36.5	36.5	65	25.9	1	4	112	0.00	30.090 
01:20	36.5	36.5	36.5	65	25.9	1	3	90	0.00	30.090 
01:25	36.5	36.5	36.5	66	26.2	1	3	112	0.00	30.090 
01:30	36.5	36.5	36.5	68	27.0	1	3	112	0.00	30.075 
01:35	36.5	36.5	36.5	69	27.3	1	3	112	0.00	30.075 
01:40	36.3	36.3	36.3	71	27.8	1	3	135	0.00	30.075 
01:45	36.2	36.2	36.2	71	27.7	1	3	112	0.00	30.066 
01:50	36.0	36.0	36.0	72	27.9	1	3	112	0.01	30.066 
01:55	36.0	36.0	36.0	73	28.2	1	5	112	0.00	30.066 
02:00	36.2	36.2	36.2	72	28.1	2	7	112	0.00	30.063 
02:05	36.3	36.3	36.3	72	28.2	3	5	90	0.00	30.063 
02:10	36.3	36.3	36.3	72	28.2	2	4	90	0.00	30.063 
02:15	36.3	36.3	36.3	73	28.5	1	4	135	0.00	30.049 
02:20	36.2	36.2	36.2	73	28.4	3	7	112	0.00	30.049 
02:25	36.2	36.2	36.2	74	28.7	2	4	112	0.00	30.049 
02:30	36.0	36.0	36.0	75	28.9	1	3	112	0.00	30.034 
02:35	36.0	36.0	36.0	74	28.5	2	4	112	0.00	30.034 
02:40	36.0	36.0	36.0	74	28.5	2	5	112	0.00	30.034 
02:45	35.9	35.9	35.9	75	28.8	2	3	112	0.00	30.018 
02:50	35.9	35.9	35.9	76	29.1	1	3	90	0.00	30.018 
02:55	35.8	35.8	35.8	76	29.0	1	4	112	0.00	30.018 
03:00	35.8	35.8	35.8	76	29.0	2	5	90	0.00	30.004 
03:05	35.8	35.8	35.8	75	28.7	2	4	135	0.00	30.004 
03:10	35.9	35.9	35.9	74	28.4	2	5	112	0.00	30.004 
03:15	36.0	36.0	36.0	73	28.2	2	5	90	0.00	29.985 
03:20	36.2	36.2	36.2	72	28.1	3	5	90	0.00	29.985 
03:25	36.3	36.3	36.3	71	27.8	2	5	90	0.00	29.985 
03:30	36.5	36.5	36.5	71	28.0	2	7	112	0.00	29.960 
03:35	36.5	36.5	36.5	70	27.7	2	5	112	0.00	29.960 
03:40	36.6	36.6	36.6	69	27.4	2	5	112	0.00	29.960 
03:45	36.8	36.8	36.8	69	27.6	3	6	112	0.00	29.954 
03:50	36.9	36.9	36.9	68	27.3	2	6	112	0.00	29.954 
03:55	37.0	37.0	37.0	68	27.4	3	6	90	0.00	29.954 
04:00	37.2	37.2	37.2	67	27.3	2	6	90	0.00	29.953 
04:05	37.2	37.2	37.2	66	26.9	3	7	90	0.00	29.953 
04:10	37.3	37.3	37.3	66	27.0	3	7	90	0.00	29.953 
04:15	37.5	37.5	37.5	66	27.2	2	5	90	0.00	29.942 
04:20	37.5	37.5	37.5	65	26.8	3	7	90	0.00	29.942 
04:25	37.6	37.6	37.6	66	27.3	2	5	112	0.00	29.942 
04:30	37.6	37.6	37.6	66	27.3	3	13	90	0.00	29.945 
04:35	37.6	37.6	37.6	66	27.3	3	6	112	0.00	29.945 
04:40	37.5	37.5	37.5	68	27.9	2	5	90	0.00	29.945 
04:45	37.5	37.5	37.5	67	27.6	2	5	112	0.00	29.955 
04:50	37.5	37.5	37.5	68	27.9	1	4	90	0.00	29.955 
04:55	37.6	37.6	37.6	67	27.7	2	6	90	0.00	29.955 
05:00	37.6	37.6	37.6	68	28.0	3	7	90	0.00	29.951 
05:05	37.6	37.6	37.6	68	28.0	2	6	90	0.00	29.951 
05:10	37.6	37.6	37.6	69	28.4	2	6	90	0.00	29.951 
05:15	37.6	37.6	37.6	69	28.4	3	7	112	0.00	29.944 
05:20	37.6	37.6	37.6	70	28.7	2	6	90	0.00	29.944 
05:25	37.6	37.6	37.6	70	28.7	2	6	90	0.00	29.944 
05:30	37.6	37.6	37.6	70	28.7	2	5	90	0.00	29.944 
05:35	37.6	37.6	37.6	71	29.1	2	4	90	0.00	29.944 
05:40	37.5	37.5	37.5	71	29.0	1	5	225	0.00	29.944 
05:45	37.5	37.5	37.5	71	29.0	1	4	90	0.00	29.945 
05:50	37.6	37.6	37.6	71	29.1	2	4	112	0.00	29.945 
05:55	37.6	37.6	37.6	71	29.1	2	5	112	0.00	29.945 
06:00	37.6	37.6	37.6	71	29.1	3	7	90	0.00	29.932 
06:05	37.6	37.6	37.6	71	29.1	2	6	112	0.00	29.932 
06:10	37.6	37.6	37.6	72	29.4	2	5	90	0.00	29.932 
06:15	37.6	37.6	37.6	71	29.1	2	6	90	0.00	29.938 
06:20	37.6	37.6	37.6	71	29.1	1	4	112	0.00	29.938 
06:25	37.8	37.8	37.8	72	29.6	2	5	112	0.00	29.938 
06:30	37.8	37.8	37.8	71	29.3	2	5	112	0.00	29.935 
06:35	37.8	37.8	37.8	71	29.3	2	3	112	0.00	29.935 
06:40	37.8	37.8	37.8	71	29.3	2	5	112	0.00	29.935 
06:45	37.9	37.9	37.9	71	29.4	2	4	112	0.00	29.926 
06:50	37.9	37.9	37.9	71	29.4	2	6	90	0.00	29.926 
06:55	37.9	37.9	37.9	71	29.4	2	5	112	0.00	29.926 
07:00	37.9	37.9	37.9	71	29.4	2	7	112	0.00	29.923 
07:05	37.9	37.9	37.9	72	29.7	1	4	112	0.00	29.923 
07:10	37.9	37.9	37.9	72	29.7	1	2	135	0.00	29.923 
07:15	37.9	37.9	37.9	72	29.7	1	3	112	0.00	29.927 
07:20	37.9	37.9	37.9	72	29.7	1	4	112	0.00	29.927 
07:25	37.9	37.9	37.9	72	29.7	1	2	112	0.00	29.927 
07:30	37.9	37.9	37.9	72	29.7	1	3	112	0.00	29.928 
07:35	37.9	37.9	37.9	73	30.0	1	2	158	0.00	29.928 
07:40	37.9	37.9	37.9	72	29.7	1	3	112	0.00	29.928 
07:45	37.9	37.9	37.9	73	30.0	1	3	112	0.00	29.932 
07:50	37.9	37.9	37.9	73	30.0	0	2	90	0.00	29.932 
07:55	37.9	37.9	37.9	73	30.0	0	2	90	0.00	29.932 
08:00	37.9	37.9	37.9	72	29.7	1	4	112	0.00	29.936 
08:05	38.0	38.0	38.0	72	29.8	1	2	112	0.00	29.936 
08:10	38.0	38.0	38.0	74	30.5	1	2	112	0.00	29.936 
08:15	38.0	38.0	38.0	73	30.1	0	2	112	0.00	29.921 
08:20	38.0	38.0	38.0	73	30.1	1	2	135	0.00	29.921 
08:25	38.0	38.0	38.0	73	30.1	0	2	135	0.00	29.921 
08:30	38.0	38.0	38.0	73	30.1	1	3	135	0.00	29.912 
08:35	38.2	38.2	38.2	73	30.3	1	3	90	0.00	29.912 
08:40	38.2	38.2	38.2	74	30.7	1	4	90	0.00	29.912 
08:45	38.3	38.3	38.3	73	30.4	1	3	112	0.00	29.903 
08:50	38.3	38.3	38.3	72	30.1	1	4	135	0.00	29.903 
08:55	38.5	38.5	38.5	73	30.6	1	4	112	0.00	29.903 
09:00	38.5	38.5	38.5	73	30.6	1	3	112	0.00	29.894 
09:05	38.6	38.6	38.6	73	30.7	1	4	112	0.00	29.894 
09:10	38.6	38.6	38.6	73	30.7	2	4	90	0.00	29.894 
09:15	38.8	38.8	38.8	72	30.6	2	5	112	0.00	29.889 
09:20	38.9	38.9	38.9	72	30.7	2	4	90	0.00	29.889 
09:25	39.2	39.2	39.2	71	30.6	2	4	112	0.00	29.889 
09:30	39.3	39.3	39.3	72	31.0	2	7	112	0.00	29.880 
09:35	39.6	39.6	39.6	71	31.0	2	6	112	0.00	29.880 
09:40	39.9	39.9	39.9	72	31.6	2	5	90	0.00	29.880 
09:45	40.1	40.1	40.1	71	31.5	2	5	112	0.00	29.879 
09:50	40.2	40.2	40.2	72	31.9	2	5	90	0.00	29.879 
09:55	40.5	40.5	40.5	72	32.2	1	3	135	0.00	29.879 
10:00	40.8	40.8	40.8	72	32.5	2	4	112	0.00	29.877 
10:05	41.2	41.2	41.2	72	32.9	1	5	45	0.00	29.877 
10:10	41.8	41.8	41.8	71	33.1	2	6	90	0.00	29.877 
10:15	42.2	42.2	42.2	71	33.5	2	5	90	0.00	29.873 
10:20	42.6	42.6	42.6	72	34.2	1	4	315	0.00	29.873 
10:25	42.9	42.9	42.9	71	34.2	2	6	90	0.00	29.873 
10:30	43.2	43.2	43.2	71	34.4	2	6	90	0.00	29.857 
10:35	43.5	43.5	43.5	72	35.1	2	6	112	0.00	29.857 
10:40	43.5	43.5	43.5	71	34.7	2	6	90	0.00	29.857 
10:45	43.8	43.8	43.8	73	35.7	2	6	45	0.00	29.855 
10:50	43.9	43.9	43.9	73	35.8	1	5	0	0.00	29.855 
10:55	44.1	44.1	44.1	73	36.0	2	4	90	0.00	29.855 
11:00	43.9	43.9	43.9	73	35.8	2	7	270	0.00	29.845 
11:05	43.9	43.9	43.9	73	35.8	2	5	248	0.00	29.845 
11:10	44.1	44.1	44.1	74	36.4	1	6	248	0.00	29.845 
11:15	44.1	44.1	44.1	73	36.0	2	4	248	0.00	29.842 
11:20	44.3	44.3	44.3	73	36.2	1	4	248	0.00	29.842 
11:25	44.5	44.5	44.5	75	37.1	1	4	270	0.00	29.842 
11:30	44.6	44.6	44.6	73	36.5	2	5	90	0.00	29.826 
11:35	44.9	44.9	44.9	74	37.1	1	3	90	0.00	29.826 
11:40	45.1	45.1	45.1	73	37.0	2	7	90	0.00	29.826 
11:45	45.2	45.2	45.2	72	36.7	2	5	90	0.00	29.817 
11:50	45.4	45.4	45.4	73	37.3	2	6	270	0.00	29.817 
11:55	45.4	45.4	45.4	73	37.3	2	5	68	0.00	29.817 
12:00	45.7	45.7	45.7	73	37.5	2	4	112	0.00	29.815 
12:05	45.8	45.8	45.8	73	37.6	2	4	45	0.00	29.815 
12:10	46.1	46.1	46.1	72	37.6	2	6	248	0.00	29.815 
12:15	46.2	46.2	46.2	73	38.0	2	5	248	0.00	29.811 
12:20	46.8	46.8	46.8	73	38.6	1	3	248	0.00	29.811 
12:25	47.1	47.1	47.1	71	38.2	2	6	248	0.00	29.811 
12:30	47.1	47.1	47.1	72	38.5	2	6	90	0.00	29.808 
12:35	47.3	47.3	47.3	71	38.4	2	5	248	0.00	29.808 
12:40	47.4	47.4	47.4	71	38.5	2	5	248	0.00	29.808 
12:45	47.6	47.6	47.6	70	38.3	2	6	248	0.00	29.803 
12:50	47.4	47.4	47.4	70	38.1	3	5	248	0.00	29.803 
12:55	47.6	47.6	47.6	70	38.3	2	5	248	0.00	29.803 
13:00	47.4	47.4	47.4	70	38.1	3	5	248	0.00	29.795 
13:05	47.3	45.8	47.3	70	38.0	4	9	248	0.00	29.795 
13:10	47.1	47.1	47.1	70	37.8	3	10	270	0.00	29.795 
13:15	47.1	45.5	47.1	71	38.2	4	8	248	0.00	29.792 
13:20	47.1	47.1	47.1	72	38.5	3	10	248	0.00	29.792 
13:25	47.1	47.1	47.1	72	38.5	2	7	225	0.00	29.792 
13:30	47.1	47.1	47.1	72	38.5	3	7	248	0.00	29.785 
13:35	47.0	47.0	47.0	72	38.4	3	10	248	0.00	29.785 
13:40	47.0	47.0	47.0	73	38.8	2	5	248	0.00	29.785 
13:45	47.1	47.1	47.1	72	38.5	2	6	248	0.00	29.773 
13:50	47.0	47.0	47.0	73	38.8	3	7	248	0.00	29.773 
13:55	46.8	45.2	46.8	73	38.6	4	9	248	0.00	29.773 
14:00	46.8	45.2	46.8	73	38.6	4	11	248	0.00	29.758 
14:05	47.0	47.0	47.0	74	39.1	3	7	248	0.00	29.758 
14:10	47.1	47.1	47.1	73	38.9	3	10	248	0.00	29.758 
14:15	47.1	45.5	47.1	74	39.2	4	10	248	0.00	29.749 
14:20	47.1	45.5	47.1	74	39.2	4	9	248	0.00	29.749 
14:25	47.3	47.3	47.3	75	39.8	3	7	248	0.00	29.749 
14:30	47.6	47.6	47.6	75	40.1	2	6	248	0.00	29.732 
14:35	48.0	48.0	48.0	75	40.5	3	7	248	0.00	29.732 
14:40	48.2	48.2	48.2	75	40.7	3	8	248	0.00	29.732 
14:45	48.0	48.0	48.0	74	40.1	3	7	248	0.00	29.719 
14:50	48.0	48.0	48.0	76	40.8	2	5	248	0.00	29.719 
14:55	47.7	47.7	47.7	76	40.5	3	9	225	0.00	29.719 
15:00	47.7	47.7	47.7	76	40.5	3	9	248	0.00	29.713 
15:05	47.4	45.9	47.4	76	40.2	4	8	248	0.00	29.713 
15:10	47.4	47.4	47.4	77	40.6	3	7	248	0.00	29.713 
15:15	47.4	47.4	47.4	77	40.6	2	5	248	0.00	29.711 
15:20	47.4	47.4	47.4	77	40.6	2	5	202	0.00	29.711 
15:25	47.4	47.4	47.4	78	40.9	2	7	225	0.00	29.711 
15:30	47.4	47.4	47.4	78	40.9	3	7	248	0.00	29.711 
15:35	47.4	47.4	47.4	78	40.9	3	7	248	0.00	29.711 
15:40	47.3	45.8	47.3	78	40.8	4	8	248	0.00	29.711 
15:45	47.1	45.5	47.1	79	40.9	4	10	248	0.00	29.717 
15:50	47.1	45.5	47.1	79	40.9	4	10	248	0.00	29.717 
15:55	47.0	44.7	47.0	80	41.2	5	11	248	0.00	29.717 
16:00	47.0	47.0	47.0	80	41.2	3	9	248	0.00	29.714 
16:05	46.8	46.8	46.8	81	41.3	3	9	225	0.00	29.714 
16:10	47.0	47.0	47.0	81	41.5	3	6	248	0.00	29.714 
16:15	47.0	47.0	47.0	81	41.5	3	7	270	0.00	29.705 
16:20	47.0	47.0	47.0	81	41.5	3	10	248	0.00	29.705 
16:25	46.8	46.8	46.8	81	41.3	2	7	270	0.00	29.705 
16:30	46.8	46.8	46.8	82	41.6	2	5	225	0.00	29.693 
16:35	46.8	46.8	46.8	82	41.6	2	7	248	0.00	29.693 
16:40	47.0	47.0	47.0	82	41.8	2	3	338	0.00	29.693 
16:45	47.0	47.0	47.0	82	41.8	1	5	90	0.00	29.691 
16:50	47.1	47.1	47.1	82	41.9	2	6	90	0.00	29.691 
16:55	47.1	47.1	47.1	82	41.9	2	4	90	0.00	29.691 
17:00	47.1	47.1	47.1	82	41.9	3	7	90	0.00	29.692 
17:05	47.0	47.0	47.0	82	41.8	2	4	90	0.00	29.692 
17:10	46.8	46.8	46.8	83	41.9	2	4	68	0.00	29.692 
17:15	46.7	46.7	46.7	83	41.8	1	7	22	0.00	29.697 
17:20	46.7	46.7	46.7	83	41.8	1	4	112	0.00	29.697 
17:25	46.5	46.5	46.5	84	41.9	1	4	112	0.00	29.697 
17:30	46.5	46.5	46.5	84	41.9	1	4	248	0.00	29.695 
17:35	46.5	46.5	46.5	84	41.9	1	2	112	0.00	29.695 
17:40	46.4	46.4	46.4	84	41.8	1	3	135	0.00	29.695 
17:45	46.2	46.2	46.2	84	41.6	1	4	270	0.00	29.695 
17:50	46.2	46.2	46.2	84	41.6	2	4	68	0.00	29.695 
17:55	46.1	46.1	46.1	84	41.5	2	7	270	0.00	29.695 
18:00	46.1	46.1	46.1	84	41.5	3	6	248	0.00	29.708 
18:05	46.1	46.1	46.1	84	41.5	2	5	248	0.00	29.708 
18:10	46.1	46.1	46.1	84	41.5	3	6	248	0.00	29.708 
18:15	46.0	46.0	46.0	85	41.7	2	5	248	0.00	29.721 
18:20	46.0	46.0	46.0	86	42.0	2	5	248	0.01	29.721 
18:25	45.8	45.8	45.8	87	42.2	2	4	248	0.00	29.721 
18:30	45.7	45.7	45.7	88	42.4	1	2	248	0.00	29.712 
18:35	45.4	45.4	45.4	88	42.1	1	3	338	0.01	29.712 
18:40	45.2	45.2	45.2	89	42.2	1	2	315	0.00	29.712 
18:45	45.2	45.2	45.2	89	42.2	1	2	22	0.00	29.709 
18:50	45.1	45.1	45.1	90	42.3	0	2	45	0.00	29.709 
18:55	44.9	44.9	44.9	90	42.1	2	6	90	0.01	29.709 
19:00	44.9	44.9	44.9	91	42.4	2	5	90	0.00	29.696 
19:05	44.8	44.8	44.8	91	42.3	1	3	112	0.00	29.696 
19:10	44.6	44.6	44.6	91	42.1	1	3	112	0.00	29.696 
19:15	44.6	44.6	44.6	92	42.4	1	3	135	0.00	29.681 
19:20	44.5	44.5	44.5	92	42.3	1	3	112	0.00	29.681 
19:25	44.5	44.5	44.5	92	42.3	1	4	112	0.00	29.681 
19:30	44.3	44.3	44.3	92	42.1	1	3	112	0.00	29.671 
19:35	44.3	44.3	44.3	92	42.1	1	4	112	0.00	29.671 
19:40	44.3	44.3	44.3	92	42.1	1	3	112	0.00	29.671 
19:45	44.2	44.2	44.2	92	42.0	1	3	112	0.00	29.679 
19:50	44.2	44.2	44.2	93	42.3	2	4	112	0.00	29.679 
19:55	44.2	44.2	44.2	93	42.3	2	4	112	0.00	29.679 
20:00	44.2	44.2	44.2	93	42.3	2	5	112	0.00	29.669 
20:05	44.2	44.2	44.2	93	42.3	2	4	112	0.00	29.669 
20:10	44.2	44.2	44.2	93	42.3	1	3	112	0.00	29.669 
20:15	44.2	44.2	44.2	93	42.3	1	3	90	0.00	29.663 
20:20	44.2	44.2	44.2	93	42.3	1	3	135	0.00	29.663 
20:25	44.2	44.2	44.2	93	42.3	1	3	135	0.00	29.663 
20:30	44.2	44.2	44.2	93	42.3	1	3	112	0.00	29.660 
20:35	44.3	44.3	44.3	93	42.4	1	3	112	0.00	29.660 
20:40	44.3	44.3	44.3	93	42.4	1	4	112	0.00	29.660 
20:45	44.3	44.3	44.3	93	42.4	1	3	112	0.00	29.649 
20:50	44.5	44.5	44.5	93	42.6	2	5	112	0.00	29.649 
20:55	44.5	44.5	44.5	93	42.6	1	3	112	0.00	29.649 
21:00	44.5	44.5	44.5	93	42.6	1	4	112	0.00	29.631 
21:05	44.3	44.3	44.3	93	42.4	1	3	112	0.00	29.631 
21:10	44.3	44.3	44.3	93	42.4	1	4	112	0.00	29.631 
21:15	44.3	44.3	44.3	93	42.4	1	3	112	0.00	29.620 
21:20	44.3	44.3	44.3	93	42.4	1	4	112	0.00	29.620 
21:25	44.3	44.3	44.3	93	42.4	1	3	90	0.00	29.620 
21:30	44.5	44.5	44.5	93	42.6	1	3	135	0.00	29.616 
21:35	44.5	44.5	44.5	93	42.6	1	3	90	0.00	29.616 
21:40	44.5	44.5	44.5	93	42.6	1	3	135	0.00	29.616 
21:45	44.5	44.5	44.5	93	42.6	1	2	135	0.00	29.616 
21:50	44.6	44.6	44.6	93	42.7	1	4	112	0.00	29.616 
21:55	44.6	44.6	44.6	93	42.7	1	4	112	0.00	29.616 
22:00	44.8	44.8	44.8	93	42.9	1	2	135	0.00	29.610 
22:05	44.8	44.8	44.8	93	42.9	1	3	135	0.00	29.610 
22:10	44.9	44.9	44.9	93	43.0	1	3	135	0.00	29.610 
22:15	45.1	45.1	45.1	92	42.9	1	3	135	0.00	29.597 
22:20	45.1	45.1	45.1	92	42.9	2	4	112	0.00	29.597 
22:25	45.2	45.2	45.2	92	43.0	2	4	90	0.00	29.597 
22:30	45.4	45.4	45.4	92	43.2	2	4	135	0.00	29.587 
22:35	45.7	45.7	45.7	91	43.2	2	4	112	0.00	29.587 
22:40	45.7	45.7	45.7	91	43.2	2	4	90	0.00	29.587 
22:45	45.8	45.8	45.8	90	43.0	1	3	112	0.00	29.578 
22:50	46.0	46.0	46.0	90	43.2	2	5	112	0.00	29.578 
22:55	46.2	46.2	46.2	89	43.1	3	10	90	0.00	29.578 
23:00	46.7	46.7	46.7	87	43.0	3	6	112	0.00	29.562 
23:05	47.1	47.1	47.1	86	43.1	2	6	112	0.00	29.562 
23:10	47.4	47.4	47.4	86	43.4	3	5	112	0.00	29.562 
23:15	47.7	47.7	47.7	85	43.4	2	6	68	0.00	29.549 
23:20	47.9	47.9	47.9	84	43.3	2	7	112	0.00	29.549 
23:25	48.0	48.0	48.0	84	43.4	2	5	90	0.00	29.549 
23:30	48.2	48.2	48.2	84	43.6	2	5	90	0.00	29.536 
23:35	48.3	48.3	48.3	84	43.7	2	5	45	0.00	29.536 
23:40	48.5	48.5	48.5	83	43.6	2	3	90	0.00	29.536 
23:45	49.1	49.1	49.1	82	43.8	2	6	248	0.00	29.528 
23:50	49.4	49.4	49.4	81	43.8	2	5	90	0.00	29.528 
23:55	49.8	49.8	49.8	81	44.2	2	7	90	0.00	29.528 

CoCoRaHS
IN-AL-39
A2 Web Hosting
Creative Commons License
GoDaddy
Look for:

loaded 2017-10-19 12:10:29 • last modified 2010-11-18 10:43:29
Privacy PolicyDisclaimer
• wx.awcolley.com is powered by PmWiki v.2002016 •
• all content (unless otherwise noted) © 2017 A W Colley